LEMH

Details ICAO LEMH (MAH)
Name Menorca Airport
Region Spain
Timezone Europe/Madrid (UTC+1.0)
Plans Departing 569
Arriving 799
Stats Elevation 303 ft / 92 m (AMSL)
Location 39.862700° 4.218660°
Runways 1
Magnetic Variation 1.461° E
Sunrise 2019-03-20 05:48:41 UTC / 2019-03-20 06:48:41 Local
Sunset 2019-03-20 17:55:22 UTC / 2019-03-20 18:55:22 Local
Advertisement - Login to hide

Runways

ID Width Length Bearing (true/mag) Surface Threshold Overrun Markings Lighting
01 148 ft / 45 m 8,376 ft / 2,553 m 8.99° / 7.53° ASPHALT 0 ft / 0 m 194 ft / 59 m PREC-APP CENTERLINE EDGE THRESHOLD CALVERT REIL-OMNI
19 148 ft / 45 m 8,376 ft / 2,553 m 188.99° / 187.53° ASPHALT 692 ft / 211 m 164 ft / 50 m PREC-APP CENTERLINE EDGE THRESHOLD CALVERT REIL-OMNI

Map

Weather


0- 5 10 15 20 25 30 35+ Temperature / °C

Clouds and Precipitation
Forecast for 2019-03-20 06:00 UTC. Updated 6 hours ago

Ground ~20,000 ft ~40,000 ft Winds

METAR

LEMH 200930Z 04015KT 010V070 9999 SCT022 12/04 Q1025

TAF

TAF LEMH 200800Z 2009/2109 02012KT 9999 FEW020 TX16/2012Z TN08/2106Z TEMPO 2009/2020 02015G26KT PROB30 TEMPO 2009/2018 4000 SHRA FEW020TCU BKN030

Frequencies

Approach 119.65 MHz Menorca Approach
Tower 118.20 MHz Menorca Tower
Recorded 129.15 MHz Menorca ATIS
Warning: Do not use this data for real-world aviation or navigation. No guarantee of current accuracy is given.